sensor_id;sensor_type;location;lat;lon;timestamp;P1;durP1;ratioP1;P2;durP2;ratioP2
11653;SDS011;5883;48.818;9.114;2023-06-10T00:01:23;5.50;;;4.95;;
11653;SDS011;5883;48.818;9.114;2023-06-10T00:04:08;7.53;;;4.95;;
11653;SDS011;5883;48.818;9.114;2023-06-10T00:06:53;6.53;;;5.40;;
11653;SDS011;5883;48.818;9.114;2023-06-10T00:09:39;5.80;;;5.13;;
11653;SDS011;5883;48.818;9.114;2023-06-10T00:12:25;5.63;;;4.95;;
11653;SDS011;5883;48.818;9.114;2023-06-10T00:15:12;5.88;;;5.28;;
11653;SDS011;5883;48.818;9.114;2023-06-10T00:17:57;6.30;;;5.20;;
11653;SDS011;5883;48.818;9.114;2023-06-10T00:20:43;7.13;;;5.43;;
11653;SDS011;5883;48.818;9.114;2023-06-10T00:23:28;6.72;;;5.50;;
11653;SDS011;5883;48.818;9.114;2023-06-10T00:26:14;8.30;;;6.47;;
11653;SDS011;5883;48.818;9.114;2023-06-10T00:29:01;6.32;;;5.60;;
11653;SDS011;5883;48.818;9.114;2023-06-10T00:31:46;7.30;;;5.75;;
11653;SDS011;5883;48.818;9.114;2023-06-10T00:34:31;6.78;;;5.70;;
11653;SDS011;5883;48.818;9.114;2023-06-10T00:37:17;6.57;;;5.95;;
11653;SDS011;5883;48.818;9.114;2023-06-10T00:40:02;7.72;;;6.20;;
11653;SDS011;5883;48.818;9.114;2023-06-10T00:42:47;8.13;;;6.15;;
11653;SDS011;5883;48.818;9.114;2023-06-10T00:45:33;7.78;;;5.93;;
11653;SDS011;5883;48.818;9.114;2023-06-10T00:48:19;6.45;;;5.85;;
11653;SDS011;5883;48.818;9.114;2023-06-10T00:51:04;7.47;;;5.82;;
11653;SDS011;5883;48.818;9.114;2023-06-10T00:53:50;6.30;;;5.70;;
11653;SDS011;5883;48.818;9.114;2023-06-10T00:56:35;6.60;;;5.65;;
11653;SDS011;5883;48.818;9.114;2023-06-10T00:59:21;6.70;;;5.53;;
11653;SDS011;5883;48.818;9.114;2023-06-10T01:02:08;6.35;;;5.75;;
11653;SDS011;5883;48.818;9.114;2023-06-10T01:04:54;7.18;;;5.68;;
11653;SDS011;5883;48.818;9.114;2023-06-10T01:07:40;6.38;;;5.78;;
11653;SDS011;5883;48.818;9.114;2023-06-10T01:10:29;8.88;;;6.00;;
11653;SDS011;5883;48.818;9.114;2023-06-10T01:13:17;10.50;;;6.50;;
11653;SDS011;5883;48.818;9.114;2023-06-10T01:16:07;6.93;;;6.07;;
11653;SDS011;5883;48.818;9.114;2023-06-10T01:18:54;7.57;;;5.82;;
11653;SDS011;5883;48.818;9.114;2023-06-10T01:21:40;7.18;;;6.25;;
11653;SDS011;5883;48.818;9.114;2023-06-10T01:24:25;6.47;;;5.88;;
11653;SDS011;5883;48.818;9.114;2023-06-10T01:27:12;7.38;;;6.05;;
11653;SDS011;5883;48.818;9.114;2023-06-10T01:29:59;6.95;;;6.15;;
11653;SDS011;5883;48.818;9.114;2023-06-10T01:32:45;7.25;;;5.88;;
11653;SDS011;5883;48.818;9.114;2023-06-10T01:35:32;7.07;;;5.43;;
11653;SDS011;5883;48.818;9.114;2023-06-10T01:38:19;6.72;;;6.03;;
11653;SDS011;5883;48.818;9.114;2023-06-10T01:41:04;7.93;;;5.72;;
11653;SDS011;5883;48.818;9.114;2023-06-10T01:43:51;6.88;;;6.15;;
11653;SDS011;5883;48.818;9.114;2023-06-10T01:46:36;6.97;;;5.93;;
11653;SDS011;5883;48.818;9.114;2023-06-10T01:49:21;8.77;;;7.25;;
11653;SDS011;5883;48.818;9.114;2023-06-10T01:52:08;8.50;;;6.70;;
11653;SDS011;5883;48.818;9.114;2023-06-10T01:54:54;7.90;;;7.10;;
11653;SDS011;5883;48.818;9.114;2023-06-10T01:57:40;8.30;;;7.00;;
11653;SDS011;5883;48.818;9.114;2023-06-10T02:00:25;9.98;;;7.15;;
11653;SDS011;5883;48.818;9.114;2023-06-10T02:03:10;12.60;;;7.82;;
11653;SDS011;5883;48.818;9.114;2023-06-10T02:05:55;8.65;;;7.75;;
11653;SDS011;5883;48.818;9.114;2023-06-10T02:08:40;10.65;;;8.07;;
11653;SDS011;5883;48.818;9.114;2023-06-10T02:11:33;8.20;;;7.40;;
11653;SDS011;5883;48.818;9.114;2023-06-10T02:14:19;8.85;;;7.25;;
11653;SDS011;5883;48.818;9.114;2023-06-10T02:17:04;8.45;;;7.55;;
11653;SDS011;5883;48.818;9.114;2023-06-10T02:19:50;9.07;;;6.93;;
11653;SDS011;5883;48.818;9.114;2023-06-10T02:22:37;7.45;;;6.10;;
11653;SDS011;5883;48.818;9.114;2023-06-10T02:25:22;7.22;;;6.32;;
11653;SDS011;5883;48.818;9.114;2023-06-10T02:28:08;6.90;;;6.30;;
11653;SDS011;5883;48.818;9.114;2023-06-10T02:30:53;6.85;;;6.03;;
11653;SDS011;5883;48.818;9.114;2023-06-10T02:33:40;6.72;;;5.97;;
11653;SDS011;5883;48.818;9.114;2023-06-10T02:36:25;8.27;;;5.90;;
11653;SDS011;5883;48.818;9.114;2023-06-10T02:39:11;7.88;;;7.10;;
11653;SDS011;5883;48.818;9.114;2023-06-10T02:41:57;7.32;;;6.63;;
11653;SDS011;5883;48.818;9.114;2023-06-10T02:44:43;10.40;;;6.93;;
11653;SDS011;5883;48.818;9.114;2023-06-10T02:47:29;9.15;;;6.18;;
11653;SDS011;5883;48.818;9.114;2023-06-10T02:50:14;11.02;;;7.13;;
11653;SDS011;5883;48.818;9.114;2023-06-10T02:52:59;7.95;;;6.88;;
11653;SDS011;5883;48.818;9.114;2023-06-10T02:55:44;8.45;;;7.15;;
11653;SDS011;5883;48.818;9.114;2023-06-10T02:58:29;7.53;;;6.75;;
11653;SDS011;5883;48.818;9.114;2023-06-10T03:01:16;7.82;;;6.97;;
11653;SDS011;5883;48.818;9.114;2023-06-10T03:04:01;8.75;;;6.75;;
11653;SDS011;5883;48.818;9.114;2023-06-10T03:06:47;8.63;;;7.55;;
11653;SDS011;5883;48.818;9.114;2023-06-10T03:09:32;8.43;;;7.43;;
11653;SDS011;5883;48.818;9.114;2023-06-10T03:12:17;8.65;;;6.10;;
11653;SDS011;5883;48.818;9.114;2023-06-10T03:15:02;8.00;;;7.00;;
11653;SDS011;5883;48.818;9.114;2023-06-10T03:17:49;7.03;;;6.32;;
11653;SDS011;5883;48.818;9.114;2023-06-10T03:20:34;7.93;;;6.82;;
11653;SDS011;5883;48.818;9.114;2023-06-10T03:23:21;8.15;;;6.65;;
11653;SDS011;5883;48.818;9.114;2023-06-10T03:26:06;9.20;;;6.40;;
11653;SDS011;5883;48.818;9.114;2023-06-10T03:28:53;10.10;;;6.50;;
11653;SDS011;5883;48.818;9.114;2023-06-10T03:31:38;7.07;;;6.30;;
11653;SDS011;5883;48.818;9.114;2023-06-10T03:34:25;8.13;;;6.15;;
11653;SDS011;5883;48.818;9.114;2023-06-10T03:37:10;6.72;;;6.10;;
11653;SDS011;5883;48.818;9.114;2023-06-10T03:39:55;6.47;;;5.82;;
11653;SDS011;5883;48.818;9.114;2023-06-10T03:42:40;10.48;;;5.90;;
11653;SDS011;5883;48.818;9.114;2023-06-10T03:45:25;8.43;;;5.90;;
11653;SDS011;5883;48.818;9.114;2023-06-10T03:48:11;6.20;;;5.60;;
11653;SDS011;5883;48.818;9.114;2023-06-10T03:50:58;6.57;;;5.57;;
11653;SDS011;5883;48.818;9.114;2023-06-10T03:53:43;6.63;;;5.40;;
11653;SDS011;5883;48.818;9.114;2023-06-10T03:56:28;6.03;;;5.40;;
11653;SDS011;5883;48.818;9.114;2023-06-10T03:59:13;7.32;;;5.78;;
11653;SDS011;5883;48.818;9.114;2023-06-10T04:01:58;6.88;;;5.25;;
11653;SDS011;5883;48.818;9.114;2023-06-10T04:04:44;6.90;;;5.90;;
11653;SDS011;5883;48.818;9.114;2023-06-10T04:07:30;6.32;;;5.35;;
11653;SDS011;5883;48.818;9.114;2023-06-10T04:10:16;6.75;;;5.75;;
11653;SDS011;5883;48.818;9.114;2023-06-10T04:13:01;7.30;;;5.43;;
11653;SDS011;5883;48.818;9.114;2023-06-10T04:15:47;6.72;;;5.82;;
11653;SDS011;5883;48.818;9.114;2023-06-10T04:18:32;6.82;;;5.38;;
11653;SDS011;5883;48.818;9.114;2023-06-10T04:21:17;5.75;;;5.15;;
11653;SDS011;5883;48.818;9.114;2023-06-10T04:24:03;7.15;;;6.45;;
11653;SDS011;5883;48.818;9.114;2023-06-10T04:26:48;6.40;;;5.75;;
11653;SDS011;5883;48.818;9.114;2023-06-10T04:29:33;6.78;;;6.03;;
11653;SDS011;5883;48.818;9.114;2023-06-10T04:32:19;7.70;;;6.00;;
11653;SDS011;5883;48.818;9.114;2023-06-10T04:35:04;7.47;;;5.97;;
11653;SDS011;5883;48.818;9.114;2023-06-10T04:37:49;6.40;;;5.80;;
11653;SDS011;5883;48.818;9.114;2023-06-10T04:40:36;7.30;;;5.97;;
11653;SDS011;5883;48.818;9.114;2023-06-10T04:43:21;6.03;;;5.43;;
11653;SDS011;5883;48.818;9.114;2023-06-10T04:46:06;6.07;;;5.47;;
11653;SDS011;5883;48.818;9.114;2023-06-10T04:48:51;6.57;;;5.30;;
11653;SDS011;5883;48.818;9.114;2023-06-10T04:51:38;5.93;;;5.32;;
11653;SDS011;5883;48.818;9.114;2023-06-10T04:54:23;6.15;;;5.32;;
11653;SDS011;5883;48.818;9.114;2023-06-10T04:57:09;5.80;;;5.22;;
11653;SDS011;5883;48.818;9.114;2023-06-10T04:59:55;5.85;;;5.25;;
11653;SDS011;5883;48.818;9.114;2023-06-10T05:02:39;5.25;;;4.75;;
11653;SDS011;5883;48.818;9.114;2023-06-10T05:05:24;5.60;;;5.00;;
11653;SDS011;5883;48.818;9.114;2023-06-10T05:08:09;5.45;;;4.95;;
11653;SDS011;5883;48.818;9.114;2023-06-10T05:10:54;5.82;;;5.20;;
11653;SDS011;5883;48.818;9.114;2023-06-10T05:13:41;5.57;;;5.03;;
11653;SDS011;5883;48.818;9.114;2023-06-10T05:16:26;5.80;;;5.05;;
11653;SDS011;5883;48.818;9.114;2023-06-10T05:19:11;6.72;;;4.97;;
11653;SDS011;5883;48.818;9.114;2023-06-10T05:21:56;6.10;;;5.47;;
11653;SDS011;5883;48.818;9.114;2023-06-10T05:24:41;6.35;;;5.35;;
11653;SDS011;5883;48.818;9.114;2023-06-10T05:27:27;4.82;;;4.32;;
11653;SDS011;5883;48.818;9.114;2023-06-10T05:30:14;4.78;;;4.28;;
11653;SDS011;5883;48.818;9.114;2023-06-10T05:33:02;4.75;;;4.25;;
11653;SDS011;5883;48.818;9.114;2023-06-10T05:35:47;6.32;;;4.18;;
11653;SDS011;5883;48.818;9.114;2023-06-10T05:38:32;4.90;;;3.47;;
11653;SDS011;5883;48.818;9.114;2023-06-10T05:41:17;3.92;;;3.60;;
11653;SDS011;5883;48.818;9.114;2023-06-10T05:44:03;3.90;;;3.60;;
11653;SDS011;5883;48.818;9.114;2023-06-10T05:46:49;3.10;;;2.72;;
11653;SDS011;5883;48.818;9.114;2023-06-10T05:49:35;3.05;;;2.75;;
11653;SDS011;5883;48.818;9.114;2023-06-10T05:52:20;2.88;;;2.63;;
11653;SDS011;5883;48.818;9.114;2023-06-10T05:55:05;5.65;;;2.97;;
11653;SDS011;5883;48.818;9.114;2023-06-10T05:57:57;3.05;;;2.78;;
11653;SDS011;5883;48.818;9.114;2023-06-10T06:00:43;2.95;;;2.70;;
11653;SDS011;5883;48.818;9.114;2023-06-10T06:03:29;2.90;;;2.60;;
11653;SDS011;5883;48.818;9.114;2023-06-10T06:06:14;2.90;;;2.65;;
11653;SDS011;5883;48.818;9.114;2023-06-10T06:08:59;2.97;;;2.63;;
11653;SDS011;5883;48.818;9.114;2023-06-10T06:11:44;5.95;;;2.88;;
11653;SDS011;5883;48.818;9.114;2023-06-10T06:14:30;4.10;;;2.58;;
11653;SDS011;5883;48.818;9.114;2023-06-10T06:17:15;4.45;;;2.70;;
11653;SDS011;5883;48.818;9.114;2023-06-10T06:20:02;4.70;;;3.10;;
11653;SDS011;5883;48.818;9.114;2023-06-10T06:22:47;2.80;;;2.60;;
11653;SDS011;5883;48.818;9.114;2023-06-10T06:25:33;4.45;;;2.70;;
11653;SDS011;5883;48.818;9.114;2023-06-10T06:28:19;3.72;;;2.72;;
11653;SDS011;5883;48.818;9.114;2023-06-10T06:31:04;2.70;;;2.50;;
11653;SDS011;5883;48.818;9.114;2023-06-10T06:33:49;2.63;;;2.20;;
11653;SDS011;5883;48.818;9.114;2023-06-10T06:36:35;3.67;;;2.67;;
11653;SDS011;5883;48.818;9.114;2023-06-10T06:39:20;3.97;;;2.70;;
11653;SDS011;5883;48.818;9.114;2023-06-10T06:42:06;2.70;;;2.50;;
11653;SDS011;5883;48.818;9.114;2023-06-10T06:44:51;14.18;;;3.20;;
11653;SDS011;5883;48.818;9.114;2023-06-10T06:47:36;3.13;;;2.83;;
11653;SDS011;5883;48.818;9.114;2023-06-10T06:50:21;2.78;;;2.58;;
11653;SDS011;5883;48.818;9.114;2023-06-10T06:53:07;2.90;;;2.55;;
11653;SDS011;5883;48.818;9.114;2023-06-10T06:55:52;3.58;;;2.58;;
11653;SDS011;5883;48.818;9.114;2023-06-10T06:58:37;3.13;;;2.58;;
11653;SDS011;5883;48.818;9.114;2023-06-10T07:01:22;3.65;;;3.00;;
11653;SDS011;5883;48.818;9.114;2023-06-10T07:04:07;2.70;;;2.50;;
11653;SDS011;5883;48.818;9.114;2023-06-10T07:06:52;3.58;;;2.75;;
11653;SDS011;5883;48.818;9.114;2023-06-10T07:09:39;2.38;;;2.17;;
11653;SDS011;5883;48.818;9.114;2023-06-10T07:12:24;3.25;;;2.95;;
11653;SDS011;5883;48.818;9.114;2023-06-10T07:15:09;3.00;;;2.38;;
11653;SDS011;5883;48.818;9.114;2023-06-10T07:17:54;7.05;;;3.05;;
11653;SDS011;5883;48.818;9.114;2023-06-10T07:20:38;4.10;;;2.63;;
11653;SDS011;5883;48.818;9.114;2023-06-10T07:23:24;3.30;;;2.90;;
11653;SDS011;5883;48.818;9.114;2023-06-10T07:26:11;2.55;;;2.35;;
11653;SDS011;5883;48.818;9.114;2023-06-10T07:28:56;3.08;;;1.98;;
11653;SDS011;5883;48.818;9.114;2023-06-10T07:31:42;3.33;;;2.60;;
11653;SDS011;5883;48.818;9.114;2023-06-10T07:34:26;2.70;;;2.50;;
11653;SDS011;5883;48.818;9.114;2023-06-10T07:37:11;2.50;;;2.17;;
11653;SDS011;5883;48.818;9.114;2023-06-10T07:39:57;3.88;;;2.10;;
11653;SDS011;5883;48.818;9.114;2023-06-10T07:42:43;2.90;;;2.60;;
11653;SDS011;5883;48.818;9.114;2023-06-10T07:45:29;6.97;;;2.33;;
11653;SDS011;5883;48.818;9.114;2023-06-10T07:48:14;7.32;;;2.58;;
11653;SDS011;5883;48.818;9.114;2023-06-10T07:50:59;4.13;;;2.40;;
11653;SDS011;5883;48.818;9.114;2023-06-10T07:53:44;3.42;;;2.30;;
11653;SDS011;5883;48.818;9.114;2023-06-10T07:56:29;2.30;;;2.10;;
11653;SDS011;5883;48.818;9.114;2023-06-10T07:59:16;2.50;;;2.30;;
11653;SDS011;5883;48.818;9.114;2023-06-10T08:02:02;2.33;;;2.13;;
11653;SDS011;5883;48.818;9.114;2023-06-10T08:04:47;2.30;;;2.03;;
11653;SDS011;5883;48.818;9.114;2023-06-10T08:07:33;3.63;;;2.10;;
11653;SDS011;5883;48.818;9.114;2023-06-10T08:10:18;2.50;;;2.30;;
11653;SDS011;5883;48.818;9.114;2023-06-10T08:13:03;2.58;;;2.17;;
11653;SDS011;5883;48.818;9.114;2023-06-10T08:15:51;2.67;;;2.47;;
11653;SDS011;5883;48.818;9.114;2023-06-10T08:18:38;3.10;;;2.53;;
11653;SDS011;5883;48.818;9.114;2023-06-10T08:21:24;2.42;;;2.22;;
11653;SDS011;5883;48.818;9.114;2023-06-10T08:24:09;2.88;;;2.55;;
11653;SDS011;5883;48.818;9.114;2023-06-10T08:26:54;5.20;;;2.35;;
11653;SDS011;5883;48.818;9.114;2023-06-10T08:29:40;3.28;;;2.65;;
11653;SDS011;5883;48.818;9.114;2023-06-10T08:32:27;3.20;;;2.47;;
11653;SDS011;5883;48.818;9.114;2023-06-10T08:35:12;2.90;;;2.60;;
11653;SDS011;5883;48.818;9.114;2023-06-10T08:37:57;2.85;;;2.40;;
11653;SDS011;5883;48.818;9.114;2023-06-10T08:40:43;2.45;;;2.20;;
11653;SDS011;5883;48.818;9.114;2023-06-10T08:43:30;2.78;;;2.53;;
11653;SDS011;5883;48.818;9.114;2023-06-10T08:46:17;2.78;;;2.45;;
11653;SDS011;5883;48.818;9.114;2023-06-10T08:49:05;2.70;;;2.47;;
11653;SDS011;5883;48.818;9.114;2023-06-10T08:51:50;4.70;;;2.40;;
11653;SDS011;5883;48.818;9.114;2023-06-10T08:54:35;2.92;;;2.63;;
11653;SDS011;5883;48.818;9.114;2023-06-10T08:57:21;4.13;;;2.85;;
11653;SDS011;5883;48.818;9.114;2023-06-10T09:00:07;2.53;;;2.33;;
11653;SDS011;5883;48.818;9.114;2023-06-10T09:02:53;3.13;;;2.63;;
11653;SDS011;5883;48.818;9.114;2023-06-10T09:05:40;2.92;;;2.72;;
11653;SDS011;5883;48.818;9.114;2023-06-10T09:08:25;2.58;;;2.38;;
11653;SDS011;5883;48.818;9.114;2023-06-10T09:11:11;2.72;;;2.50;;
11653;SDS011;5883;48.818;9.114;2023-06-10T09:13:56;3.00;;;2.70;;
11653;SDS011;5883;48.818;9.114;2023-06-10T09:16:41;3.78;;;3.35;;
11653;SDS011;5883;48.818;9.114;2023-06-10T09:19:27;3.05;;;2.75;;
11653;SDS011;5883;48.818;9.114;2023-06-10T09:22:14;3.10;;;2.80;;
11653;SDS011;5883;48.818;9.114;2023-06-10T09:25:03;2.83;;;2.63;;
11653;SDS011;5883;48.818;9.114;2023-06-10T09:27:50;3.45;;;2.90;;
11653;SDS011;5883;48.818;9.114;2023-06-10T09:30:37;3.97;;;3.03;;
11653;SDS011;5883;48.818;9.114;2023-06-10T09:33:24;3.05;;;2.72;;
11653;SDS011;5883;48.818;9.114;2023-06-10T09:36:10;2.95;;;2.65;;
11653;SDS011;5883;48.818;9.114;2023-06-10T09:38:57;4.72;;;2.92;;
11653;SDS011;5883;48.818;9.114;2023-06-10T09:41:43;4.25;;;2.67;;
11653;SDS011;5883;48.818;9.114;2023-06-10T09:44:28;3.42;;;3.00;;
11653;SDS011;5883;48.818;9.114;2023-06-10T09:47:16;3.58;;;3.28;;
11653;SDS011;5883;48.818;9.114;2023-06-10T09:50:04;3.38;;;3.08;;
11653;SDS011;5883;48.818;9.114;2023-06-10T09:52:50;2.40;;;2.20;;
11653;SDS011;5883;48.818;9.114;2023-06-10T09:55:38;4.00;;;2.90;;
11653;SDS011;5883;48.818;9.114;2023-06-10T09:58:33;4.22;;;3.10;;
11653;SDS011;5883;48.818;9.114;2023-06-10T10:01:18;3.28;;;2.97;;
11653;SDS011;5883;48.818;9.114;2023-06-10T10:04:03;2.72;;;2.53;;
11653;SDS011;5883;48.818;9.114;2023-06-10T10:06:49;3.53;;;3.22;;
11653;SDS011;5883;48.818;9.114;2023-06-10T10:09:35;4.10;;;3.30;;
11653;SDS011;5883;48.818;9.114;2023-06-10T10:12:22;3.55;;;2.97;;
11653;SDS011;5883;48.818;9.114;2023-06-10T10:15:08;2.38;;;2.17;;
11653;SDS011;5883;48.818;9.114;2023-06-10T10:17:55;3.42;;;2.65;;
11653;SDS011;5883;48.818;9.114;2023-06-10T10:20:45;4.13;;;3.45;;
11653;SDS011;5883;48.818;9.114;2023-06-10T10:23:32;3.60;;;3.10;;
11653;SDS011;5883;48.818;9.114;2023-06-10T10:26:18;4.03;;;3.20;;
11653;SDS011;5883;48.818;9.114;2023-06-10T10:29:10;3.35;;;2.92;;
11653;SDS011;5883;48.818;9.114;2023-06-10T10:31:55;3.08;;;2.70;;
11653;SDS011;5883;48.818;9.114;2023-06-10T10:34:42;3.50;;;2.90;;
11653;SDS011;5883;48.818;9.114;2023-06-10T10:37:28;3.05;;;2.53;;
11653;SDS011;5883;48.818;9.114;2023-06-10T10:40:14;3.08;;;2.70;;
11653;SDS011;5883;48.818;9.114;2023-06-10T10:42:59;3.60;;;2.88;;
11653;SDS011;5883;48.818;9.114;2023-06-10T10:45:46;2.45;;;2.25;;
11653;SDS011;5883;48.818;9.114;2023-06-10T10:48:33;3.33;;;3.03;;
11653;SDS011;5883;48.818;9.114;2023-06-10T10:51:19;5.13;;;3.00;;
11653;SDS011;5883;48.818;9.114;2023-06-10T10:54:11;4.20;;;2.70;;
11653;SDS011;5883;48.818;9.114;2023-06-10T10:57:10;6.20;;;3.33;;
11653;SDS011;5883;48.818;9.114;2023-06-10T10:59:56;4.93;;;3.28;;
11653;SDS011;5883;48.818;9.114;2023-06-10T11:02:45;5.45;;;3.67;;
11653;SDS011;5883;48.818;9.114;2023-06-10T11:05:35;3.17;;;2.88;;
11653;SDS011;5883;48.818;9.114;2023-06-10T11:11:21;3.55;;;3.25;;
11653;SDS011;5883;48.818;9.114;2023-06-10T11:14:07;5.30;;;2.75;;
11653;SDS011;5883;48.818;9.114;2023-06-10T11:16:54;2.85;;;2.50;;
11653;SDS011;5883;48.818;9.114;2023-06-10T11:19:43;3.65;;;3.00;;
11653;SDS011;5883;48.818;9.114;2023-06-10T11:22:30;4.15;;;2.50;;
11653;SDS011;5883;48.818;9.114;2023-06-10T11:25:15;3.03;;;2.83;;
11653;SDS011;5883;48.818;9.114;2023-06-10T11:28:01;4.00;;;3.22;;
11653;SDS011;5883;48.818;9.114;2023-06-10T11:30:46;4.25;;;2.90;;
11653;SDS011;5883;48.818;9.114;2023-06-10T11:33:31;2.95;;;2.75;;
11653;SDS011;5883;48.818;9.114;2023-06-10T11:36:18;3.60;;;2.60;;
11653;SDS011;5883;48.818;9.114;2023-06-10T11:39:03;3.05;;;2.85;;
11653;SDS011;5883;48.818;9.114;2023-06-10T11:41:49;3.80;;;2.95;;
11653;SDS011;5883;48.818;9.114;2023-06-10T11:44:35;4.22;;;3.58;;
11653;SDS011;5883;48.818;9.114;2023-06-10T11:47:21;3.83;;;3.00;;
11653;SDS011;5883;48.818;9.114;2023-06-10T11:50:06;3.05;;;2.75;;
11653;SDS011;5883;48.818;9.114;2023-06-10T11:52:53;3.88;;;2.80;;
11653;SDS011;5883;48.818;9.114;2023-06-10T11:55:43;3.72;;;2.35;;
11653;SDS011;5883;48.818;9.114;2023-06-10T11:58:28;3.15;;;2.72;;
11653;SDS011;5883;48.818;9.114;2023-06-10T12:01:18;3.95;;;2.78;;
11653;SDS011;5883;48.818;9.114;2023-06-10T12:04:05;3.42;;;2.50;;
11653;SDS011;5883;48.818;9.114;2023-06-10T12:06:51;2.78;;;2.58;;
11653;SDS011;5883;48.818;9.114;2023-06-10T12:09:38;3.13;;;2.45;;
11653;SDS011;5883;48.818;9.114;2023-06-10T12:12:22;3.50;;;3.20;;
11653;SDS011;5883;48.818;9.114;2023-06-10T12:15:08;3.13;;;2.47;;
11653;SDS011;5883;48.818;9.114;2023-06-10T12:17:53;3.35;;;2.58;;
11653;SDS011;5883;48.818;9.114;2023-06-10T12:20:38;3.35;;;2.67;;
11653;SDS011;5883;48.818;9.114;2023-06-10T12:23:23;4.03;;;3.17;;
11653;SDS011;5883;48.818;9.114;2023-06-10T12:26:09;3.47;;;2.60;;
11653;SDS011;5883;48.818;9.114;2023-06-10T12:28:54;3.47;;;3.13;;
11653;SDS011;5883;48.818;9.114;2023-06-10T12:31:56;3.22;;;2.55;;
11653;SDS011;5883;48.818;9.114;2023-06-10T12:34:42;3.13;;;2.83;;
11653;SDS011;5883;48.818;9.114;2023-06-10T12:37:27;2.95;;;2.33;;
11653;SDS011;5883;48.818;9.114;2023-06-10T12:40:12;2.80;;;2.42;;
11653;SDS011;5883;48.818;9.114;2023-06-10T12:42:59;3.58;;;2.70;;
11653;SDS011;5883;48.818;9.114;2023-06-10T12:45:44;2.53;;;2.30;;
11653;SDS011;5883;48.818;9.114;2023-06-10T12:48:30;2.65;;;2.38;;
11653;SDS011;5883;48.818;9.114;2023-06-10T12:51:15;2.65;;;2.45;;
11653;SDS011;5883;48.818;9.114;2023-06-10T12:54:00;2.72;;;2.53;;
11653;SDS011;5883;48.818;9.114;2023-06-10T12:56:45;2.92;;;2.70;;
11653;SDS011;5883;48.818;9.114;2023-06-10T12:59:31;2.60;;;2.38;;
11653;SDS011;5883;48.818;9.114;2023-06-10T13:02:16;2.88;;;2.58;;
11653;SDS011;5883;48.818;9.114;2023-06-10T13:05:04;3.28;;;2.97;;
11653;SDS011;5883;48.818;9.114;2023-06-10T13:08:08;2.60;;;2.40;;
11653;SDS011;5883;48.818;9.114;2023-06-10T13:11:15;3.72;;;2.80;;
11653;SDS011;5883;48.818;9.114;2023-06-10T13:14:11;2.80;;;2.60;;
11653;SDS011;5883;48.818;9.114;2023-06-10T13:17:08;3.75;;;2.60;;
11653;SDS011;5883;48.818;9.114;2023-06-10T13:19:53;2.80;;;2.60;;
11653;SDS011;5883;48.818;9.114;2023-06-10T13:22:38;4.03;;;2.53;;
11653;SDS011;5883;48.818;9.114;2023-06-10T13:25:23;2.70;;;2.50;;
11653;SDS011;5883;48.818;9.114;2023-06-10T13:28:08;2.25;;;2.05;;
11653;SDS011;5883;48.818;9.114;2023-06-10T13:30:53;2.28;;;2.08;;
11653;SDS011;5883;48.818;9.114;2023-06-10T13:33:40;4.07;;;2.17;;
11653;SDS011;5883;48.818;9.114;2023-06-10T13:36:27;3.53;;;2.50;;
11653;SDS011;5883;48.818;9.114;2023-06-10T13:39:12;2.70;;;2.30;;
11653;SDS011;5883;48.818;9.114;2023-06-10T13:41:58;4.40;;;2.20;;
11653;SDS011;5883;48.818;9.114;2023-06-10T13:44:43;2.60;;;2.40;;
11653;SDS011;5883;48.818;9.114;2023-06-10T13:47:28;2.97;;;2.38;;
11653;SDS011;5883;48.818;9.114;2023-06-10T13:50:14;2.80;;;2.10;;
11653;SDS011;5883;48.818;9.114;2023-06-10T13:52:59;2.47;;;2.28;;
11653;SDS011;5883;48.818;9.114;2023-06-10T13:55:44;2.65;;;2.45;;
11653;SDS011;5883;48.818;9.114;2023-06-10T13:58:29;2.80;;;2.60;;
11653;SDS011;5883;48.818;9.114;2023-06-10T14:01:14;4.28;;;2.47;;
11653;SDS011;5883;48.818;9.114;2023-06-10T14:03:59;2.92;;;2.20;;
11653;SDS011;5883;48.818;9.114;2023-06-10T14:06:46;2.53;;;2.20;;
11653;SDS011;5883;48.818;9.114;2023-06-10T14:09:32;2.20;;;2.00;;
11653;SDS011;5883;48.818;9.114;2023-06-10T14:12:16;4.85;;;2.72;;
11653;SDS011;5883;48.818;9.114;2023-06-10T14:15:01;2.35;;;2.10;;
11653;SDS011;5883;48.818;9.114;2023-06-10T14:17:46;2.72;;;2.42;;
11653;SDS011;5883;48.818;9.114;2023-06-10T14:20:31;2.67;;;2.25;;
11653;SDS011;5883;48.818;9.114;2023-06-10T14:23:18;2.72;;;2.35;;
11653;SDS011;5883;48.818;9.114;2023-06-10T14:26:03;3.85;;;2.30;;
11653;SDS011;5883;48.818;9.114;2023-06-10T14:28:49;2.60;;;2.40;;
11653;SDS011;5883;48.818;9.114;2023-06-10T14:31:34;2.60;;;2.40;;
11653;SDS011;5883;48.818;9.114;2023-06-10T14:34:19;2.60;;;2.40;;
11653;SDS011;5883;48.818;9.114;2023-06-10T14:37:07;3.00;;;2.58;;
11653;SDS011;5883;48.818;9.114;2023-06-10T14:39:53;2.83;;;2.63;;
11653;SDS011;5883;48.818;9.114;2023-06-10T14:42:38;2.50;;;2.30;;
11653;SDS011;5883;48.818;9.114;2023-06-10T14:45:23;4.05;;;2.90;;
11653;SDS011;5883;48.818;9.114;2023-06-10T14:48:09;3.47;;;2.97;;
11653;SDS011;5883;48.818;9.114;2023-06-10T14:50:54;3.45;;;2.65;;
11653;SDS011;5883;48.818;9.114;2023-06-10T14:53:39;2.83;;;2.33;;
11653;SDS011;5883;48.818;9.114;2023-06-10T14:56:25;3.35;;;2.65;;
11653;SDS011;5883;48.818;9.114;2023-06-10T14:59:10;2.88;;;2.50;;
11653;SDS011;5883;48.818;9.114;2023-06-10T15:01:56;3.05;;;2.30;;
11653;SDS011;5883;48.818;9.114;2023-06-10T15:04:43;3.38;;;2.83;;
11653;SDS011;5883;48.818;9.114;2023-06-10T15:07:28;3.30;;;3.00;;
11653;SDS011;5883;48.818;9.114;2023-06-10T15:10:14;5.53;;;2.50;;
11653;SDS011;5883;48.818;9.114;2023-06-10T15:13:00;3.22;;;2.80;;
11653;SDS011;5883;48.818;9.114;2023-06-10T15:15:46;3.00;;;2.72;;
11653;SDS011;5883;48.818;9.114;2023-06-10T15:18:31;4.35;;;3.85;;
11653;SDS011;5883;48.818;9.114;2023-06-10T15:21:16;3.67;;;2.78;;
11653;SDS011;5883;48.818;9.114;2023-06-10T15:24:01;3.20;;;2.90;;
11653;SDS011;5883;48.818;9.114;2023-06-10T15:26:46;5.90;;;3.22;;
11653;SDS011;5883;48.818;9.114;2023-06-10T15:29:33;2.58;;;2.28;;
11653;SDS011;5883;48.818;9.114;2023-06-10T15:32:18;2.53;;;2.33;;
11653;SDS011;5883;48.818;9.114;2023-06-10T15:35:03;3.28;;;2.97;;
11653;SDS011;5883;48.818;9.114;2023-06-10T15:37:48;2.75;;;2.42;;
11653;SDS011;5883;48.818;9.114;2023-06-10T15:40:33;2.88;;;2.55;;
11653;SDS011;5883;48.818;9.114;2023-06-10T15:43:19;6.18;;;2.80;;
11653;SDS011;5883;48.818;9.114;2023-06-10T15:46:05;2.78;;;2.58;;
11653;SDS011;5883;48.818;9.114;2023-06-10T15:48:50;3.17;;;2.63;;
11653;SDS011;5883;48.818;9.114;2023-06-10T15:51:37;3.08;;;2.72;;
11653;SDS011;5883;48.818;9.114;2023-06-10T15:54:22;3.88;;;3.13;;
11653;SDS011;5883;48.818;9.114;2023-06-10T15:57:07;3.78;;;3.20;;
11653;SDS011;5883;48.818;9.114;2023-06-10T15:59:52;3.78;;;3.47;;
11653;SDS011;5883;48.818;9.114;2023-06-10T16:02:39;4.45;;;2.92;;
11653;SDS011;5883;48.818;9.114;2023-06-10T16:05:24;4.70;;;2.85;;
11653;SDS011;5883;48.818;9.114;2023-06-10T16:08:09;2.80;;;2.60;;
11653;SDS011;5883;48.818;9.114;2023-06-10T16:10:54;2.35;;;2.13;;
11653;SDS011;5883;48.818;9.114;2023-06-10T16:13:39;2.85;;;2.60;;
11653;SDS011;5883;48.818;9.114;2023-06-10T16:16:25;2.50;;;2.30;;
11653;SDS011;5883;48.818;9.114;2023-06-10T16:19:11;2.50;;;2.30;;
11653;SDS011;5883;48.818;9.114;2023-06-10T16:21:56;2.30;;;2.10;;
11653;SDS011;5883;48.818;9.114;2023-06-10T16:24:41;3.03;;;2.70;;
11653;SDS011;5883;48.818;9.114;2023-06-10T16:27:26;6.35;;;2.40;;
11653;SDS011;5883;48.818;9.114;2023-06-10T16:30:11;2.92;;;2.60;;
11653;SDS011;5883;48.818;9.114;2023-06-10T16:32:58;3.05;;;2.75;;
11653;SDS011;5883;48.818;9.114;2023-06-10T16:35:44;9.48;;;7.00;;
11653;SDS011;5883;48.818;9.114;2023-06-10T16:38:30;6.20;;;5.70;;
11653;SDS011;5883;48.818;9.114;2023-06-10T16:41:15;8.27;;;7.40;;
11653;SDS011;5883;48.818;9.114;2023-06-10T16:43:59;8.02;;;6.10;;
11653;SDS011;5883;48.818;9.114;2023-06-10T16:46:45;3.65;;;2.60;;
11653;SDS011;5883;48.818;9.114;2023-06-10T16:49:30;2.55;;;2.35;;
11653;SDS011;5883;48.818;9.114;2023-06-10T16:52:17;3.50;;;2.38;;
11653;SDS011;5883;48.818;9.114;2023-06-10T16:55:02;3.25;;;2.60;;
11653;SDS011;5883;48.818;9.114;2023-06-10T16:57:48;2.80;;;2.60;;